Time;durP1;ratioP1;P1;durP2;ratioP2;P2;SDS_P1;SDS_P2;PMS_P1;PMS_P2;Temp;Humidity;BMP_temperature;BMP_pressure;BME280_temperature;BME280_humidity;BME280_pressure;Samples;Min_cycle;Max_cycle;Signal;HPM_P1;HPM_P2
2021/06/25 00:01:52;;;;;;;22.88;16.15;;;13.10;95.90;;;;;;5005387;28;20064;-87
2021/06/25 00:04:18;;;;;;;18.67;15.80;;;13.10;96.20;;;;;;5001387;28;20041;-87
2021/06/25 00:06:44;;;;;;;21.25;17.05;;;13.00;95.80;;;;;;5030468;28;20415;-87
2021/06/25 00:09:10;;;;;;;20.90;15.57;;;13.00;95.90;;;;;;5016378;28;20076;-87
2021/06/25 00:11:37;;;;;;;21.90;15.77;;;13.00;95.90;;;;;;4997665;28;20187;-87
2021/06/25 00:14:07;;;;;;;16.98;12.10;;;12.90;95.90;;;;;;4990668;28;20063;-87
2021/06/25 00:16:33;;;;;;;16.50;12.73;;;12.90;95.70;;;;;;5013887;28;20048;-88
2021/06/25 00:18:59;;;;;;;15.48;12.52;;;12.90;95.60;;;;;;5000905;28;20453;-87
2021/06/25 00:21:25;;;;;;;15.57;12.65;;;12.80;95.50;;;;;;5013163;28;20072;-87
2021/06/25 00:23:51;;;;;;;18.58;13.10;;;12.70;95.60;;;;;;5017792;28;20073;-87
2021/06/25 00:26:17;;;;;;;19.83;13.80;;;12.70;95.70;;;;;;5029017;28;20021;-88
2021/06/25 00:28:43;;;;;;;18.30;15.20;;;12.70;95.90;;;;;;5021209;28;20036;-88
2021/06/25 00:31:09;;;;;;;22.08;16.00;;;12.60;95.90;;;;;;4990124;28;20025;-87
2021/06/25 00:33:35;;;;;;;15.05;13.45;;;12.60;96.00;;;;;;5001436;28;20098;-87
2021/06/25 00:36:01;;;;;;;19.30;14.77;;;12.50;95.90;;;;;;4997003;28;20399;-87
2021/06/25 00:38:27;;;;;;;18.13;14.05;;;12.50;95.90;;;;;;5004351;28;20079;-86
2021/06/25 00:40:53;;;;;;;16.77;14.70;;;12.50;96.00;;;;;;4988321;28;20065;-86
2021/06/25 00:43:19;;;;;;;18.52;15.27;;;12.40;96.00;;;;;;5039434;28;20040;-87
2021/06/25 00:45:45;;;;;;;16.88;15.05;;;12.40;96.20;;;;;;5001487;28;20176;-87
2021/06/25 00:48:11;;;;;;;19.02;15.38;;;12.40;96.20;;;;;;4998137;28;20109;-87
2021/06/25 00:50:37;;;;;;;19.90;14.63;;;12.30;96.20;;;;;;4999880;28;20045;-87
2021/06/25 00:53:04;;;;;;;19.75;14.88;;;12.30;96.20;;;;;;5033118;28;20659;-86
2021/06/25 00:55:53;;;;;;;16.58;14.60;;;12.30;96.30;;;;;;5032091;28;20033;-87
2021/06/25 00:58:19;;;;;;;18.75;15.38;;;12.20;96.30;;;;;;5034876;28;20404;-87
2021/06/25 01:00:46;;;;;;;18.60;15.48;;;12.20;96.30;;;;;;5004764;28;20033;-87
2021/06/25 01:03:13;;;;;;;23.20;15.93;;;12.20;96.40;;;;;;5017689;28;20120;-88
2021/06/25 01:05:39;;;;;;;16.63;13.82;;;12.20;96.50;;;;;;4999597;28;20041;-87
2021/06/25 01:08:07;;;;;;;16.52;14.07;;;12.10;96.60;;;;;;5001533;28;20041;-87
2021/06/25 01:10:38;;;;;;;17.17;14.20;;;12.10;96.60;;;;;;4998661;28;20049;-86
2021/06/25 01:13:05;;;;;;;20.88;15.52;;;12.10;96.40;;;;;;4995630;28;20037;-87
2021/06/25 01:15:32;;;;;;;16.08;13.43;;;12.00;96.40;;;;;;5027492;28;20033;-87
2021/06/25 01:17:58;;;;;;;21.00;13.80;;;12.00;96.50;;;;;;4996069;28;20046;-87
2021/06/25 01:20:29;;;;;;;12.32;10.43;;;12.00;96.50;;;;;;4997763;28;20452;-87
2021/06/25 01:22:56;;;;;;;13.18;10.02;;;11.90;96.40;;;;;;4986190;28;21160;-87
2021/06/25 01:25:29;;;;;;;13.88;10.23;;;11.90;96.30;;;;;;4999452;28;20041;-87
2021/06/25 01:27:58;;;;;;;20.10;12.30;;;11.80;96.40;;;;;;5016969;28;20515;-86
2021/06/25 01:30:29;;;;;;;19.98;15.30;;;11.80;96.50;;;;;;5013390;28;21325;-87
2021/06/25 01:32:56;;;;;;;17.80;14.52;;;11.80;96.50;;;;;;4995088;28;20040;-87
2021/06/25 01:35:22;;;;;;;15.02;13.15;;;11.70;96.90;;;;;;4997534;28;20495;-87
2021/06/25 01:37:48;;;;;;;18.52;13.68;;;11.70;96.50;;;;;;5007176;28;20067;-86
2021/06/25 01:40:16;;;;;;;14.25;12.60;;;11.60;96.50;;;;;;4966777;28;20041;-86
2021/06/25 01:42:43;;;;;;;18.17;15.82;;;11.60;96.60;;;;;;5030985;28;20325;-86
2021/06/25 01:45:11;;;;;;;17.17;14.43;;;11.50;96.60;;;;;;5014859;28;20051;-86
2021/06/25 01:47:38;;;;;;;23.77;16.00;;;11.50;96.70;;;;;;5012073;28;20028;-87
2021/06/25 01:50:36;;;;;;;24.58;16.23;;;11.50;96.70;;;;;;4980379;28;20045;-86
2021/06/25 01:53:04;;;;;;;21.80;17.15;;;11.50;96.80;;;;;;5014014;28;20106;-86
2021/06/25 01:55:40;;;;;;;21.02;15.98;;;11.40;96.80;;;;;;5000174;28;20133;-87
2021/06/25 01:58:11;;;;;;;20.40;15.55;;;11.40;96.90;;;;;;5016820;28;21049;-86
2021/06/25 02:00:44;;;;;;;18.77;15.77;;;11.40;96.90;;;;;;5015811;28;20041;-87
2021/06/25 02:03:09;;;;;;;16.95;14.50;;;11.40;96.90;;;;;;5015027;28;20037;-87
2021/06/25 02:05:35;;;;;;;16.15;11.00;;;11.40;96.90;;;;;;4984310;28;20043;-86
2021/06/25 02:08:01;;;;;;;11.65;9.00;;;11.40;96.90;;;;;;5013760;28;20036;-87
2021/06/25 02:10:27;;;;;;;11.18;9.43;;;11.40;96.80;;;;;;4997511;28;20048;-87
2021/06/25 02:12:54;;;;;;;16.02;11.95;;;11.40;96.80;;;;;;5003621;28;20041;-86
2021/06/25 02:15:20;;;;;;;17.80;12.70;;;11.30;96.80;;;;;;5013885;28;20036;-86
2021/06/25 02:17:45;;;;;;;16.17;12.65;;;11.30;96.90;;;;;;4987597;28;20042;-86
2021/06/25 02:20:12;;;;;;;13.75;12.18;;;11.30;96.80;;;;;;4966791;28;20372;-86
2021/06/25 02:22:38;;;;;;;18.73;13.30;;;11.30;96.90;;;;;;5017264;28;20043;-86
2021/06/25 02:25:09;;;;;;;16.05;12.60;;;11.20;96.90;;;;;;4980153;28;20040;-86
2021/06/25 02:27:35;;;;;;;13.23;11.00;;;11.20;96.90;;;;;;5011935;28;20044;-86
2021/06/25 02:30:02;;;;;;;10.18;7.65;;;11.20;96.80;;;;;;5009993;28;20040;-85
2021/06/25 02:32:28;;;;;;;8.27;7.10;;;11.20;96.70;;;;;;5010563;28;20436;-86
2021/06/25 02:34:53;;;;;;;9.00;7.95;;;11.10;96.40;;;;;;4994696;28;20037;-86
2021/06/25 02:37:19;;;;;;;8.68;7.80;;;11.00;96.30;;;;;;4981791;28;20320;-85
2021/06/25 02:39:45;;;;;;;10.23;8.13;;;11.00;96.30;;;;;;4979576;28;20025;-86
2021/06/25 02:42:11;;;;;;;9.25;8.25;;;10.90;96.20;;;;;;5000873;28;20048;-86
2021/06/25 02:44:37;;;;;;;11.05;8.45;;;10.90;96.40;;;;;;5013056;28;20071;-87
2021/06/25 02:47:04;;;;;;;9.35;8.35;;;10.80;96.50;;;;;;5004096;28;20033;-85
2021/06/25 02:49:29;;;;;;;10.95;8.70;;;10.70;96.40;;;;;;4993203;28;20880;-86
2021/06/25 02:51:55;;;;;;;13.35;8.50;;;10.70;96.40;;;;;;4995350;28;20124;-85
2021/06/25 02:54:21;;;;;;;7.43;5.78;;;10.70;96.60;;;;;;4996993;28;20506;-86
2021/06/25 02:56:47;;;;;;;4.90;4.50;;;10.60;96.60;;;;;;5009107;28;20386;-86
2021/06/25 02:59:15;;;;;;;5.60;4.97;;;10.60;96.50;;;;;;5001823;28;20044;-86
2021/06/25 03:01:42;;;;;;;8.00;5.97;;;10.50;96.50;;;;;;4991292;28;20126;-86
2021/06/25 03:04:07;;;;;;;6.40;5.70;;;10.50;96.60;;;;;;4996175;28;20132;-86
2021/06/25 03:06:37;;;;;;;7.70;6.90;;;10.40;96.60;;;;;;4982059;28;20113;-85
2021/06/25 03:09:04;;;;;;;7.07;6.38;;;10.40;96.60;;;;;;4983268;28;20040;-85
2021/06/25 03:11:29;;;;;;;8.23;7.07;;;10.40;96.90;;;;;;5007359;28;20048;-85
2021/06/25 03:13:55;;;;;;;6.03;5.43;;;10.30;96.60;;;;;;5021093;28;20045;-85
2021/06/25 03:16:21;;;;;;;6.45;5.85;;;10.30;96.50;;;;;;4988438;28;20119;-84
2021/06/25 03:18:47;;;;;;;6.05;5.40;;;10.20;96.50;;;;;;5027217;28;20037;-85
2021/06/25 03:21:13;;;;;;;6.03;5.38;;;10.20;96.60;;;;;;5009170;28;20032;-85
2021/06/25 03:23:39;;;;;;;6.05;5.45;;;10.20;96.60;;;;;;5004846;28;20407;-85
2021/06/25 03:26:05;;;;;;;7.70;5.57;;;10.20;96.60;;;;;;5023119;28;20037;-85
2021/06/25 03:28:31;;;;;;;5.32;4.82;;;10.10;96.70;;;;;;5023744;28;20052;-84
2021/06/25 03:30:57;;;;;;;11.00;5.88;;;10.10;96.60;;;;;;5021567;28;20048;-85
2021/06/25 03:33:23;;;;;;;9.80;5.43;;;10.10;96.60;;;;;;5007683;28;20052;-85
2021/06/25 03:35:50;;;;;;;8.05;7.13;;;10.10;97.00;;;;;;5003187;28;20546;-84
2021/06/25 03:38:16;;;;;;;12.43;7.85;;;10.00;96.60;;;;;;5026996;28;20037;-85
2021/06/25 03:40:42;;;;;;;9.77;8.63;;;10.00;96.70;;;;;;4993269;28;20110;-85
2021/06/25 03:43:08;;;;;;;10.40;7.82;;;10.00;96.80;;;;;;4996915;28;20049;-85
2021/06/25 03:45:34;;;;;;;9.32;8.18;;;10.00;96.80;;;;;;5023060;28;20040;-85
2021/06/25 03:48:00;;;;;;;9.20;8.20;;;10.00;97.00;;;;;;5037003;28;20041;-85
2021/06/25 03:50:27;;;;;;;8.90;8.10;;;9.90;96.90;;;;;;5021344;28;20047;-85
2021/06/25 03:52:53;;;;;;;9.77;8.88;;;9.90;97.00;;;;;;5019843;28;20032;-85
2021/06/25 03:55:19;;;;;;;11.50;10.25;;;10.00;97.10;;;;;;5039883;28;20641;-84
2021/06/25 03:57:45;;;;;;;13.52;9.65;;;10.00;97.10;;;;;;5029509;28;20033;-84
2021/06/25 04:00:14;;;;;;;10.75;9.52;;;10.00;97.10;;;;;;5012891;28;20109;-85
2021/06/25 04:02:41;;;;;;;10.43;8.73;;;10.00;97.10;;;;;;5012500;28;20057;-84
2021/06/25 04:05:10;;;;;;;9.45;8.15;;;10.10;97.00;;;;;;5022142;28;20041;-85
2021/06/25 04:07:37;;;;;;;9.80;8.00;;;10.00;97.10;;;;;;5004932;28;20037;-85
2021/06/25 04:10:05;;;;;;;9.88;8.80;;;10.10;97.10;;;;;;4989558;28;20071;-84
2021/06/25 04:12:32;;;;;;;9.20;8.35;;;10.10;97.20;;;;;;5018333;28;20173;-85
2021/06/25 04:14:58;;;;;;;8.77;7.97;;;10.10;97.20;;;;;;5018857;28;20664;-84
2021/06/25 04:17:24;;;;;;;9.18;7.25;;;10.20;97.20;;;;;;5022245;28;20404;-85
2021/06/25 04:19:50;;;;;;;8.57;7.70;;;10.20;97.10;;;;;;4984280;28;20037;-85
2021/06/25 04:22:16;;;;;;;8.85;8.02;;;10.20;97.10;;;;;;5035085;28;20161;-85
2021/06/25 04:24:42;;;;;;;10.00;8.38;;;10.30;97.00;;;;;;5022357;28;20115;-85
2021/06/25 04:27:08;;;;;;;9.60;8.02;;;10.30;97.00;;;;;;5015247;28;20933;-85
2021/06/25 04:29:35;;;;;;;11.63;8.30;;;10.30;97.10;;;;;;5014447;28;20032;-84
2021/06/25 04:32:01;;;;;;;10.27;8.10;;;10.30;97.00;;;;;;5002810;28;21367;-85
2021/06/25 04:34:27;;;;;;;11.60;8.68;;;10.30;97.00;;;;;;5022029;28;20092;-84
2021/06/25 04:36:53;;;;;;;10.02;8.65;;;10.30;97.10;;;;;;5018604;28;20787;-85
2021/06/25 04:39:19;;;;;;;10.00;8.48;;;10.40;97.20;;;;;;5037390;28;20096;-85
2021/06/25 04:41:45;;;;;;;10.93;9.75;;;10.40;97.20;;;;;;5017387;28;20120;-85
2021/06/25 04:44:12;;;;;;;15.23;9.45;;;10.40;97.30;;;;;;5012384;28;20728;-84
2021/06/25 04:46:38;;;;;;;13.98;9.75;;;10.50;97.30;;;;;;5009364;28;20521;-85
2021/06/25 04:49:04;;;;;;;12.40;10.07;;;10.50;97.30;;;;;;4996508;28;20489;-84
2021/06/25 04:51:30;;;;;;;11.27;10.18;;;10.50;97.30;;;;;;5004393;28;20037;-85
2021/06/25 04:53:56;;;;;;;11.40;10.20;;;10.50;97.40;;;;;;5017931;28;20047;-85
2021/06/25 04:56:22;;;;;;;12.10;8.73;;;10.60;97.50;;;;;;5034543;28;21424;-85
2021/06/25 04:58:48;;;;;;;10.52;9.45;;;10.60;97.50;;;;;;5039679;28;20147;-84
2021/06/25 05:01:14;;;;;;;14.55;10.50;;;10.70;97.60;;;;;;5020915;28;20147;-84
2021/06/25 05:03:41;;;;;;;11.60;8.98;;;10.70;97.50;;;;;;5025595;28;20039;-84
2021/06/25 05:06:07;;;;;;;9.73;8.35;;;10.80;97.60;;;;;;5020970;28;20037;-85
2021/06/25 05:08:33;;;;;;;15.40;12.13;;;10.90;97.50;;;;;;5002933;28;20041;-84
2021/06/25 05:10:59;;;;;;;13.60;10.73;;;11.00;97.50;;;;;;5017920;28;20079;-85
2021/06/25 05:13:25;;;;;;;12.18;10.48;;;11.10;97.60;;;;;;5004489;28;20037;-85
2021/06/25 05:15:51;;;;;;;15.90;12.05;;;11.10;97.60;;;;;;5020993;28;20040;-84
2021/06/25 05:18:23;;;;;;;13.52;11.75;;;11.20;97.60;;;;;;5006358;28;20041;-85
2021/06/25 05:20:50;;;;;;;14.85;13.27;;;11.30;97.60;;;;;;5016343;28;20041;-85
2021/06/25 05:23:18;;;;;;;16.58;13.60;;;11.30;97.60;;;;;;5031991;28;20048;-84
2021/06/25 05:25:44;;;;;;;18.10;14.57;;;11.40;97.60;;;;;;4999113;28;20106;-85
2021/06/25 05:28:11;;;;;;;14.98;13.23;;;11.50;97.70;;;;;;5014699;28;20033;-84
2021/06/25 05:30:37;;;;;;;17.48;15.40;;;11.60;97.70;;;;;;4998230;28;20029;-84
2021/06/25 05:33:04;;;;;;;17.92;16.02;;;11.70;97.80;;;;;;5033573;28;20064;-84
2021/06/25 05:35:32;;;;;;;20.80;17.88;;;11.80;97.80;;;;;;5001731;28;21421;-84
2021/06/25 05:37:59;;;;;;;21.88;17.35;;;11.90;97.90;;;;;;5003108;28;20111;-84
2021/06/25 05:40:26;;;;;;;22.40;18.35;;;12.10;98.00;;;;;;5005442;28;20044;-84
2021/06/25 05:42:52;;;;;;;22.60;17.30;;;12.10;98.00;;;;;;4996016;28;20450;-84
2021/06/25 05:45:18;;;;;;;22.02;19.38;;;12.20;98.00;;;;;;4990404;28;20114;-84
2021/06/25 05:47:43;;;;;;;20.55;18.35;;;12.40;98.10;;;;;;4996937;28;20503;-84
2021/06/25 05:50:11;;;;;;;22.08;18.73;;;12.50;98.10;;;;;;5010362;28;20579;-84
2021/06/25 05:52:37;;;;;;;23.30;19.70;;;12.60;98.00;;;;;;4977411;28;20095;-84
2021/06/25 05:55:03;;;;;;;23.55;19.75;;;12.70;98.10;;;;;;4996179;28;20056;-84
2021/06/25 05:57:29;;;;;;;23.48;20.02;;;12.80;98.10;;;;;;5001560;28;20025;-84
2021/06/25 05:59:55;;;;;;;27.20;21.90;;;12.90;98.10;;;;;;5001608;28;20043;-85
2021/06/25 06:02:21;;;;;;;27.98;22.42;;;13.10;98.10;;;;;;4988455;28;20041;-85
2021/06/25 06:04:47;;;;;;;24.15;21.15;;;13.20;98.10;;;;;;4979874;28;20048;-84
2021/06/25 06:07:13;;;;;;;28.83;23.65;;;13.30;98.10;;;;;;4990957;28;20044;-85
2021/06/25 06:09:39;;;;;;;26.63;22.52;;;13.50;98.00;;;;;;5005668;28;20166;-85
2021/06/25 06:12:05;;;;;;;25.30;21.08;;;13.60;97.90;;;;;;4996258;28;20033;-84
2021/06/25 06:14:31;;;;;;;28.50;22.58;;;13.70;97.80;;;;;;4980357;28;20775;-84
2021/06/25 06:16:58;;;;;;;27.65;21.05;;;13.80;97.70;;;;;;5012560;28;20040;-85
2021/06/25 06:19:24;;;;;;;25.45;20.25;;;13.90;97.60;;;;;;4995309;28;20124;-85
2021/06/25 06:33:01;;;;;;;25.33;19.67;;;14.60;96.80;;;;;;5016862;28;20120;-84
2021/06/25 06:35:27;;;;;;;25.80;21.17;;;14.70;96.60;;;;;;4978409;28;20048;-84
2021/06/25 06:37:55;;;;;;;26.65;19.35;;;14.90;96.50;;;;;;4999085;28;20033;-84
2021/06/25 06:40:21;;;;;;;22.45;19.17;;;15.00;96.20;;;;;;5000929;28;20039;-84
2021/06/25 06:42:48;;;;;;;21.30;18.92;;;15.10;95.90;;;;;;5011114;28;20045;-85
2021/06/25 06:45:17;;;;;;;20.73;18.48;;;15.30;95.80;;;;;;5013210;28;20103;-85
2021/06/25 06:47:44;;;;;;;20.08;17.95;;;15.40;95.60;;;;;;5010521;28;20041;-84
2021/06/25 06:50:10;;;;;;;22.98;17.92;;;15.60;95.40;;;;;;5015180;28;20099;-85
2021/06/25 06:52:36;;;;;;;19.70;17.52;;;15.70;95.10;;;;;;5031259;28;20515;-85
2021/06/25 06:55:02;;;;;;;25.35;18.83;;;15.90;94.70;;;;;;5031496;28;20132;-86
2021/06/25 06:57:28;;;;;;;23.05;17.20;;;16.00;94.40;;;;;;5002056;28;20491;-84
2021/06/25 06:59:54;;;;;;;20.88;17.13;;;16.10;94.10;;;;;;4997783;28;20025;-84
2021/06/25 07:02:20;;;;;;;22.08;16.98;;;16.10;93.70;;;;;;5009974;28;20120;-84
2021/06/25 07:04:45;;;;;;;24.55;17.05;;;16.10;93.30;;;;;;4981082;28;20079;-84
2021/06/25 07:07:12;;;;;;;21.45;17.10;;;16.10;93.10;;;;;;5013003;28;21503;-84
2021/06/25 07:09:37;;;;;;;21.77;16.85;;;16.10;92.90;;;;;;5002093;28;21395;-84
2021/06/25 07:12:04;;;;;;;20.35;16.67;;;16.10;92.80;;;;;;5019359;28;21250;-85
2021/06/25 07:14:30;;;;;;;20.95;16.33;;;16.20;92.50;;;;;;4982910;28;20107;-84
2021/06/25 07:16:55;;;;;;;17.35;15.55;;;16.30;92.20;;;;;;4995371;28;20045;-84
2021/06/25 07:19:21;;;;;;;17.73;15.98;;;16.40;91.90;;;;;;4988850;28;20198;-85
2021/06/25 07:21:47;;;;;;;20.25;15.65;;;16.50;91.80;;;;;;5004764;28;20049;-84
2021/06/25 07:24:13;;;;;;;20.70;16.83;;;16.60;91.50;;;;;;5001041;28;20040;-85
2021/06/25 07:26:38;;;;;;;20.52;18.08;;;16.70;91.80;;;;;;4999898;28;20045;-85
2021/06/25 07:29:04;;;;;;;19.73;15.38;;;16.80;91.60;;;;;;4997350;28;20033;-86
2021/06/25 07:31:30;;;;;;;17.25;13.60;;;17.00;91.20;;;;;;4985867;28;20033;-85
2021/06/25 07:33:56;;;;;;;19.30;15.52;;;17.10;90.00;;;;;;5033311;28;20044;-85
2021/06/25 07:36:22;;;;;;;17.33;13.27;;;17.20;88.30;;;;;;4985394;28;21052;-85
2021/06/25 07:38:48;;;;;;;17.15;12.60;;;17.10;87.60;;;;;;4986785;28;20114;-84
2021/06/25 07:41:14;;;;;;;32.35;15.18;;;17.10;86.80;;;;;;5014309;28;20056;-84
2021/06/25 07:43:40;;;;;;;20.65;13.55;;;17.10;86.40;;;;;;4999761;28;20094;-85
2021/06/25 07:46:05;;;;;;;25.83;16.15;;;17.20;86.60;;;;;;5011275;28;20029;-84
2021/06/25 07:48:31;;;;;;;19.02;15.00;;;17.20;86.70;;;;;;4982207;28;20040;-82
2021/06/25 07:50:57;;;;;;;17.92;14.13;;;17.20;86.20;;;;;;5015766;28;20489;-85
2021/06/25 07:53:23;;;;;;;17.13;13.23;;;17.30;84.90;;;;;;4997329;28;20095;-84
2021/06/25 07:55:48;;;;;;;20.52;15.68;;;17.30;83.40;;;;;;5000168;28;20377;-85
2021/06/25 07:58:17;;;;;;;17.13;14.95;;;17.40;83.20;;;;;;4998749;28;20067;-84
2021/06/25 08:00:43;;;;;;;18.40;15.05;;;17.50;83.20;;;;;;4997209;28;20037;-83
2021/06/25 08:03:10;;;;;;;13.73;12.10;;;17.50;82.10;;;;;;5007666;28;20037;-85
2021/06/25 08:05:36;;;;;;;16.75;11.02;;;17.50;81.00;;;;;;5006455;28;20056;-85
2021/06/25 08:08:03;;;;;;;10.50;8.63;;;17.40;79.90;;;;;;5016952;28;20095;-86
2021/06/25 08:10:29;;;;;;;9.30;7.20;;;17.50;77.80;;;;;;5013745;28;20881;-85
2021/06/25 08:12:55;;;;;;;8.20;6.80;;;17.50;74.70;;;;;;4998481;28;20036;-85
2021/06/25 08:15:21;;;;;;;12.52;9.15;;;17.60;72.20;;;;;;4993136;28;20387;-86
2021/06/25 08:17:46;;;;;;;8.77;6.88;;;17.60;71.90;;;;;;4996646;28;20044;-85
2021/06/25 08:20:13;;;;;;;10.90;7.40;;;17.70;70.70;;;;;;4990686;28;20033;-85
2021/06/25 08:22:38;;;;;;;13.75;8.48;;;17.80;70.10;;;;;;5017659;28;20044;-86
2021/06/25 08:25:05;;;;;;;12.05;9.52;;;17.90;70.50;;;;;;4992568;28;20053;-84
2021/06/25 08:27:31;;;;;;;10.98;8.80;;;18.00;70.70;;;;;;5007334;28;20041;-86
2021/06/25 08:29:57;;;;;;;8.95;8.07;;;18.10;70.30;;;;;;4966721;28;20051;-85
2021/06/25 08:32:23;;;;;;;9.35;7.78;;;18.10;69.90;;;;;;5017441;28;20032;-85
2021/06/25 08:34:49;;;;;;;12.15;7.10;;;18.20;69.90;;;;;;5017534;28;20127;-85
2021/06/25 08:37:16;;;;;;;10.27;7.65;;;18.30;68.70;;;;;;5008831;28;20120;-84
2021/06/25 08:39:42;;;;;;;8.82;6.88;;;18.30;67.20;;;;;;5016548;28;20706;-85
2021/06/25 08:42:08;;;;;;;6.07;4.88;;;18.30;67.40;;;;;;4997092;28;20038;-85
2021/06/25 08:44:39;;;;;;;8.05;5.80;;;18.30;65.20;;;;;;5011851;28;20037;-85
2021/06/25 08:47:05;;;;;;;6.95;6.25;;;18.30;65.30;;;;;;5013352;28;20036;-86
2021/06/25 08:49:34;;;;;;;7.47;5.80;;;18.20;65.80;;;;;;5006750;28;20042;-84
2021/06/25 08:52:01;;;;;;;6.88;6.10;;;18.30;66.40;;;;;;5014144;28;20358;-85
2021/06/25 08:54:27;;;;;;;8.07;5.72;;;18.40;66.10;;;;;;5015900;28;20048;-85
2021/06/25 08:56:52;;;;;;;11.65;3.15;;;18.50;65.30;;;;;;4987316;28;20041;-85
2021/06/25 08:59:19;;;;;;;5.20;3.30;;;18.40;63.90;;;;;;4987940;28;20033;-84
2021/06/25 09:01:50;;;;;;;6.60;3.33;;;18.40;62.70;;;;;;5021605;28;20067;-86
2021/06/25 09:04:45;;;;;;;5.07;2.95;;;18.40;61.30;;;;;;5000976;28;20555;-84
2021/06/25 09:07:12;;;;;;;4.88;2.83;;;18.40;61.00;;;;;;5015396;28;20049;-84
2021/06/25 09:09:41;;;;;;;6.53;4.05;;;18.40;60.20;;;;;;4987565;28;20037;-85
2021/06/25 09:12:10;;;;;;;7.22;3.45;;;18.40;61.10;;;;;;5038308;28;20521;-85
2021/06/25 09:15:15;;;;;;;6.25;3.60;;;18.40;61.20;;;;;;5025848;28;20071;-84
2021/06/25 09:17:59;;;;;;;5.55;3.40;;;18.50;61.80;;;;;;4947503;28;20035;-86
2021/06/25 09:20:46;;;;;;;5.00;3.60;;;18.50;60.90;;;;;;4960231;28;20141;-86
2021/06/25 09:23:27;;;;;;;9.25;4.50;;;18.50;60.70;;;;;;4980388;28;20135;-84
2021/06/25 09:25:58;;;;;;;7.45;3.72;;;18.60;59.80;;;;;;5023696;28;20112;-85
2021/06/25 09:28:35;;;;;;;7.43;4.00;;;18.70;59.20;;;;;;5019936;28;20057;-86
2021/06/25 09:31:01;;;;;;;6.55;4.18;;;18.70;59.30;;;;;;5017749;28;20040;-86
2021/06/25 09:33:27;;;;;;;7.35;4.13;;;18.70;59.00;;;;;;5016926;28;20053;-84
2021/06/25 09:35:55;;;;;;;5.63;3.78;;;18.70;59.40;;;;;;5023285;28;20033;-85
2021/06/25 09:38:36;;;;;;;6.05;3.88;;;18.70;58.70;;;;;;5043771;28;20033;-86
2021/06/25 09:41:02;;;;;;;9.90;3.33;;;18.70;59.80;;;;;;5015232;28;20041;-86
2021/06/25 09:43:33;;;;;;;4.10;3.05;;;18.70;59.60;;;;;;4992703;28;20044;-86
2021/06/25 09:46:01;;;;;;;8.07;3.95;;;18.70;60.20;;;;;;5014659;28;20488;-86
2021/06/25 09:48:48;;;;;;;6.15;3.38;;;18.70;61.80;;;;;;4993357;28;20049;-86
2021/06/25 09:51:14;;;;;;;6.90;4.95;;;18.70;62.20;;;;;;5011923;28;20511;-84
2021/06/25 09:54:06;;;;;;;7.32;3.95;;;18.70;61.50;;;;;;4997273;28;20605;-86
2021/06/25 09:56:34;;;;;;;5.10;4.03;;;18.70;61.70;;;;;;5028845;28;20152;-86
2021/06/25 10:00:10;;;;;;;9.48;4.78;;;18.60;61.80;;;;;;5001346;28;20048;-85
2021/06/25 10:02:20;;;;;;;8.45;4.97;;;18.60;63.10;;;;;;5018010;28;20063;-84
2021/06/25 10:04:49;;;;;;;7.88;4.88;;;18.60;63.60;;;;;;5011304;28;20037;-84
2021/06/25 10:07:20;;;;;;;11.45;6.03;;;18.60;64.00;;;;;;5017235;28;20036;-85
2021/06/25 10:09:50;;;;;;;9.18;5.57;;;18.60;63.60;;;;;;5029956;28;20037;-85
2021/06/25 10:12:21;;;;;;;9.80;5.07;;;18.60;63.90;;;;;;5034389;28;20044;-86
2021/06/25 10:14:49;;;;;;;8.35;5.38;;;18.60;62.60;;;;;;5036758;28;20388;-87
2021/06/25 10:17:15;;;;;;;5.35;4.80;;;18.60;62.10;;;;;;5020618;28;20036;-86
2021/06/25 10:19:46;;;;;;;6.85;5.25;;;18.50;62.20;;;;;;4998409;28;20049;-85
2021/06/25 10:22:15;;;;;;;8.25;4.47;;;18.60;62.10;;;;;;5014813;28;20487;-85
2021/06/25 10:24:44;;;;;;;9.02;5.05;;;18.60;61.80;;;;;;4999304;28;20395;-85
2021/06/25 10:27:11;;;;;;;11.15;6.90;;;18.70;63.10;;;;;;5018150;28;20056;-85
2021/06/25 10:29:38;;;;;;;9.00;6.30;;;18.70;61.80;;;;;;5033451;28;20132;-86
2021/06/25 10:32:10;;;;;;;10.50;6.15;;;18.80;61.60;;;;;;5012420;28;20521;-85
2021/06/25 10:34:42;;;;;;;8.20;5.85;;;18.90;62.20;;;;;;5032660;28;20120;-86
2021/06/25 10:37:10;;;;;;;12.73;6.40;;;18.90;62.30;;;;;;5028204;28;20116;-86
2021/06/25 10:39:36;;;;;;;14.02;8.20;;;19.00;63.70;;;;;;4991365;28;20041;-86
2021/06/25 10:42:09;;;;;;;15.43;9.15;;;19.00;65.60;;;;;;5019565;28;20078;-85
2021/06/25 10:44:36;;;;;;;10.13;8.25;;;19.10;65.10;;;;;;5021459;28;20142;-85
2021/06/25 10:47:28;;;;;;;11.82;9.10;;;19.10;66.00;;;;;;5048399;28;20590;-86
2021/06/25 10:52:29;;;;;;;13.60;10.77;;;19.10;66.80;;;;;;5027851;28;19932;-86
2021/06/25 10:55:11;;;;;;;13.00;10.23;;;19.10;65.90;;;;;;5025743;28;20222;-86
2021/06/25 10:57:49;;;;;;;12.55;10.02;;;19.20;66.50;;;;;;5027081;28;20032;-85
2021/06/25 11:00:24;;;;;;;13.00;9.75;;;19.30;67.30;;;;;;5023486;28;20040;-85
2021/06/25 11:02:50;;;;;;;15.90;10.63;;;19.40;66.80;;;;;;5027091;28;20135;-85
2021/06/25 11:05:25;;;;;;;21.25;11.45;;;19.40;65.90;;;;;;5027014;28;20040;-87
2021/06/25 11:07:55;;;;;;;16.27;10.98;;;19.50;66.20;;;;;;5044132;28;20124;-86
2021/06/25 11:10:26;;;;;;;18.50;12.25;;;19.60;67.70;;;;;;5028014;28;20120;-85
2021/06/25 11:13:14;;;;;;;18.23;12.57;;;19.60;69.10;;;;;;5023829;28;20034;-86
2021/06/25 11:15:41;;;;;;;19.10;14.45;;;19.60;68.70;;;;;;5039257;28;20040;-86
2021/06/25 11:18:18;;;;;;;16.75;12.95;;;19.70;68.00;;;;;;5011305;28;20063;-84
2021/06/25 11:20:55;;;;;;;19.98;13.90;;;19.80;68.80;;;;;;5025996;28;20040;-84
2021/06/25 11:23:43;;;;;;;18.67;14.90;;;19.90;68.40;;;;;;5022362;28;20550;-84
2021/06/25 11:26:15;;;;;;;19.80;12.82;;;20.10;67.60;;;;;;5043862;28;20102;-86
2021/06/25 11:28:42;;;;;;;16.95;14.15;;;20.30;67.80;;;;;;5033678;28;20034;-84
2021/06/25 11:31:13;;;;;;;22.27;15.25;;;20.40;67.20;;;;;;5014544;28;20058;-83
2021/06/25 11:33:39;;;;;;;22.10;16.20;;;20.50;66.80;;;;;;5028734;28;20104;-85
2021/06/25 11:36:14;;;;;;;18.02;13.52;;;20.50;66.40;;;;;;5047385;28;20362;-85
2021/06/25 11:39:06;;;;;;;21.17;14.05;;;20.50;67.40;;;;;;5023609;28;20121;-86
2021/06/25 11:41:44;;;;;;;19.83;13.98;;;20.60;67.20;;;;;;5028425;28;20483;-84
2021/06/25 11:44:15;;;;;;;21.90;13.93;;;20.50;66.60;;;;;;5042355;28;20033;-85
2021/06/25 11:46:52;;;;;;;19.30;14.10;;;20.50;66.70;;;;;;5026311;28;20075;-85
2021/06/25 11:49:18;;;;;;;20.92;14.82;;;20.50;66.20;;;;;;5041973;28;20037;-84
2021/06/25 11:51:44;;;;;;;19.50;14.30;;;20.40;66.80;;;;;;5011987;28;20029;-85
2021/06/25 11:54:12;;;;;;;23.05;15.60;;;20.30;67.30;;;;;;4998816;28;20037;-86
2021/06/25 11:56:43;;;;;;;19.20;14.98;;;20.30;67.60;;;;;;5044641;28;20075;-84
2021/06/25 11:59:10;;;;;;;20.25;15.32;;;20.30;68.50;;;;;;4991753;28;20119;-84
2021/06/25 12:01:54;;;;;;;18.63;15.63;;;20.30;68.10;;;;;;5025355;28;20056;-84
2021/06/25 12:04:43;;;;;;;22.58;16.50;;;20.30;68.50;;;;;;5042049;28;20079;-83
2021/06/25 12:07:14;;;;;;;22.60;16.88;;;20.30;69.10;;;;;;5010050;28;20040;-84
2021/06/25 12:09:46;;;;;;;23.05;16.65;;;20.20;68.40;;;;;;5044403;28;20032;-83
2021/06/25 12:12:23;;;;;;;24.42;17.50;;;20.20;68.80;;;;;;5027395;28;20039;-84
2021/06/25 12:14:52;;;;;;;25.55;16.83;;;20.20;68.40;;;;;;5039159;28;20488;-84
2021/06/25 12:17:18;;;;;;;24.38;16.67;;;20.30;68.90;;;;;;5043300;28;20052;-84
2021/06/25 12:20:17;;;;;;;20.52;16.92;;;20.40;68.80;;;;;;5040373;28;20037;-83
2021/06/25 12:22:54;;;;;;;24.40;18.42;;;20.40;69.80;;;;;;5009931;28;20735;-85
2021/06/25 12:25:43;;;;;;;26.25;18.33;;;20.50;68.80;;;;;;5025660;28;20618;-81
2021/06/25 12:28:15;;;;;;;25.63;18.00;;;20.50;69.30;;;;;;5023449;28;20116;-82
2021/06/25 12:30:43;;;;;;;25.77;18.13;;;20.50;69.20;;;;;;5028120;28;20044;-84
2021/06/25 12:33:09;;;;;;;25.52;19.35;;;20.50;69.20;;;;;;5023549;28;20420;-83
2021/06/25 12:35:37;;;;;;;24.90;19.15;;;20.50;69.70;;;;;;5029511;28;20037;-84
2021/06/25 12:38:11;;;;;;;24.92;19.27;;;20.50;69.40;;;;;;5027072;28;20033;-83
2021/06/25 12:40:40;;;;;;;27.13;19.00;;;20.50;69.80;;;;;;5023424;28;20506;-85
2021/06/25 12:43:07;;;;;;;34.17;22.10;;;20.50;70.10;;;;;;5030215;28;20041;-83
2021/06/25 12:46:02;;;;;;;29.73;21.17;;;20.50;70.20;;;;;;5022884;28;20126;-83
2021/06/25 12:48:31;;;;;;;30.27;20.98;;;20.50;70.60;;;;;;5038840;28;20744;-84
2021/06/25 12:51:00;;;;;;;24.75;20.00;;;20.40;70.90;;;;;;5025734;28;20039;-84
2021/06/25 12:53:28;;;;;;;24.50;19.10;;;20.40;71.50;;;;;;5023424;28;20121;-83
2021/06/25 12:55:55;;;;;;;25.25;19.20;;;20.40;71.90;;;;;;5010814;28;20148;-85